Time;durP1;ratioP1;P1;durP2;ratioP2;P2;SDS_P1;SDS_P2;PMS_P1;PMS_P2;Temp;Humidity;BMP_temperature;BMP_pressure;BME280_temperature;BME280_humidity;BME280_pressure;Samples;Min_cycle;Max_cycle;Signal;HPM_P1;HPM_P2
2022/02/25 00:00:06;;;;;;;5.40;1.70;;;4.30;79.50;;;;;;5031565;28;20032;-65
2022/02/25 00:02:32;;;;;;;8.20;1.63;;;4.30;79.50;;;;;;5032756;28;20097;-61
2022/02/25 00:04:57;;;;;;;4.55;1.63;;;4.30;79.50;;;;;;5032374;28;20167;-61
2022/02/25 00:07:23;;;;;;;4.70;1.90;;;4.30;79.50;;;;;;5023310;28;20041;-61
2022/02/25 00:09:48;;;;;;;4.20;1.60;;;4.30;79.50;;;;;;5012155;28;20026;-60
2022/02/25 00:12:14;;;;;;;7.13;1.65;;;4.30;79.40;;;;;;5027610;28;20042;-60
2022/02/25 00:14:40;;;;;;;10.15;1.92;;;4.30;79.30;;;;;;5012682;28;20026;-61
2022/02/25 00:17:06;;;;;;;4.93;1.50;;;4.30;79.30;;;;;;5012179;28;20034;-65
2022/02/25 00:19:31;;;;;;;6.47;1.65;;;4.30;79.30;;;;;;5012928;28;20121;-65
2022/02/25 00:21:57;;;;;;;5.80;1.60;;;4.30;79.40;;;;;;5012381;28;20034;-65
2022/02/25 00:24:23;;;;;;;5.95;1.60;;;4.30;79.40;;;;;;5011026;28;20528;-64
2022/02/25 00:26:49;;;;;;;6.57;1.73;;;4.30;79.30;;;;;;5011264;28;20038;-65
2022/02/25 00:29:14;;;;;;;7.47;1.45;;;4.30;79.20;;;;;;5012706;28;20037;-65
2022/02/25 00:31:40;;;;;;;5.55;1.75;;;4.30;79.20;;;;;;5045751;28;20032;-65
2022/02/25 00:34:06;;;;;;;8.52;2.00;;;4.30;79.20;;;;;;5044933;28;20034;-64
2022/02/25 00:36:31;;;;;;;5.32;1.50;;;4.30;79.20;;;;;;5031516;28;20496;-64
2022/02/25 00:38:57;;;;;;;7.10;1.52;;;4.20;79.10;;;;;;5032322;28;20061;-64
2022/02/25 00:41:23;;;;;;;7.50;1.98;;;4.20;79.20;;;;;;5063876;28;20034;-65
2022/02/25 00:43:48;;;;;;;4.88;1.90;;;4.20;79.30;;;;;;5031947;28;20945;-64
2022/02/25 00:46:14;;;;;;;4.35;1.48;;;4.20;79.20;;;;;;5030581;28;20113;-64
2022/02/25 00:48:40;;;;;;;6.13;1.63;;;4.20;79.20;;;;;;5031760;28;20029;-60
2022/02/25 00:51:05;;;;;;;10.23;2.30;;;4.20;79.20;;;;;;5032173;28;20040;-60
2022/02/25 00:53:31;;;;;;;5.25;1.70;;;4.20;79.20;;;;;;5032230;28;20040;-60
2022/02/25 00:55:57;;;;;;;6.05;2.03;;;4.20;79.20;;;;;;5031451;28;20049;-60
2022/02/25 00:58:23;;;;;;;6.60;2.10;;;4.20;79.20;;;;;;5031706;28;20030;-65
2022/02/25 01:00:49;;;;;;;5.07;1.63;;;4.20;79.00;;;;;;5030332;28;20859;-64
2022/02/25 01:03:14;;;;;;;7.35;1.60;;;4.20;78.90;;;;;;5031636;28;20145;-64
2022/02/25 01:05:40;;;;;;;9.32;1.42;;;4.30;78.90;;;;;;5029780;28;20060;-64
2022/02/25 01:08:10;;;;;;;5.85;1.70;;;4.30;78.70;;;;;;5013801;28;20056;-65
2022/02/25 01:10:37;;;;;;;4.18;1.92;;;4.30;78.50;;;;;;5030145;28;20030;-60
2022/02/25 01:13:03;;;;;;;7.88;2.05;;;4.30;78.60;;;;;;5024112;28;20060;-61
2022/02/25 01:15:30;;;;;;;6.80;1.60;;;4.30;78.60;;;;;;5031532;28;20029;-60
2022/02/25 01:17:56;;;;;;;6.63;1.52;;;4.20;78.40;;;;;;5062722;28;20125;-59
2022/02/25 01:20:24;;;;;;;10.38;1.92;;;4.20;78.40;;;;;;5031488;28;20456;-59
2022/02/25 01:22:50;;;;;;;7.10;1.83;;;4.10;78.30;;;;;;5030032;28;20049;-64
2022/02/25 01:25:16;;;;;;;6.80;1.40;;;4.20;78.30;;;;;;5030944;28;20560;-65
2022/02/25 01:27:42;;;;;;;6.75;1.58;;;4.10;78.20;;;;;;5030119;28;20464;-65
2022/02/25 01:30:10;;;;;;;9.63;1.83;;;4.10;78.30;;;;;;5030988;28;20104;-65
2022/02/25 01:32:37;;;;;;;5.53;1.33;;;4.10;78.30;;;;;;5030934;28;20073;-64
2022/02/25 01:35:03;;;;;;;5.18;1.52;;;4.10;78.30;;;;;;5029360;28;20120;-60
2022/02/25 01:37:30;;;;;;;6.13;1.55;;;4.10;78.80;;;;;;5030481;28;20029;-60
2022/02/25 01:39:55;;;;;;;7.57;2.05;;;4.10;78.20;;;;;;5036326;28;20037;-60
2022/02/25 01:42:21;;;;;;;9.80;2.03;;;4.10;78.20;;;;;;5036126;28;20033;-60
2022/02/25 01:44:48;;;;;;;7.57;1.60;;;4.10;78.20;;;;;;5029943;28;20041;-61
2022/02/25 01:47:14;;;;;;;6.63;2.47;;;4.10;78.20;;;;;;5028672;28;20087;-60
2022/02/25 01:49:41;;;;;;;11.30;2.10;;;4.00;78.30;;;;;;5030165;28;20480;-60
2022/02/25 01:52:15;;;;;;;12.80;2.97;;;4.00;78.40;;;;;;5030715;28;20026;-59
2022/02/25 01:54:42;;;;;;;6.30;2.67;;;3.90;78.50;;;;;;5026893;28;20034;-60
2022/02/25 01:57:11;;;;;;;6.28;2.05;;;3.90;78.60;;;;;;5024293;28;20068;-59
2022/02/25 01:59:37;;;;;;;9.77;2.00;;;3.90;78.70;;;;;;5010563;28;20114;-61
2022/02/25 02:02:07;;;;;;;11.73;2.97;;;3.90;78.80;;;;;;5018505;28;20057;-60
2022/02/25 02:04:33;;;;;;;10.35;2.55;;;3.90;78.90;;;;;;5045314;28;20216;-65
2022/02/25 02:06:59;;;;;;;7.85;2.13;;;3.90;79.00;;;;;;5061019;28;20045;-65
2022/02/25 02:09:25;;;;;;;10.93;3.00;;;3.90;79.00;;;;;;5028326;28;20045;-64
2022/02/25 02:11:53;;;;;;;12.43;3.45;;;3.80;79.10;;;;;;5029198;28;20021;-65
2022/02/25 02:14:22;;;;;;;4.13;2.20;;;3.80;79.20;;;;;;5029457;28;20029;-65
2022/02/25 02:16:50;;;;;;;6.88;3.20;;;3.80;79.30;;;;;;5009408;28;20463;-65
2022/02/25 02:19:17;;;;;;;7.85;2.83;;;3.80;79.30;;;;;;5010094;28;20489;-60
2022/02/25 02:21:51;;;;;;;6.88;3.08;;;3.80;79.20;;;;;;5009820;28;20030;-60
2022/02/25 02:24:18;;;;;;;11.40;3.10;;;3.80;79.40;;;;;;5009922;28;20034;-60
2022/02/25 02:26:45;;;;;;;8.07;3.45;;;3.80;79.60;;;;;;5007834;28;20037;-60
2022/02/25 02:29:12;;;;;;;9.68;3.28;;;3.70;79.60;;;;;;5009523;28;20056;-60
2022/02/25 02:31:39;;;;;;;9.02;3.08;;;3.70;79.70;;;;;;5042039;28;20029;-64
2022/02/25 02:34:06;;;;;;;7.38;3.40;;;3.70;79.70;;;;;;5049448;28;20044;-65
2022/02/25 02:36:32;;;;;;;6.15;3.20;;;3.70;79.80;;;;;;5049275;28;20033;-64
2022/02/25 02:38:58;;;;;;;11.45;3.10;;;3.70;79.80;;;;;;5031280;28;20091;-65
2022/02/25 02:41:24;;;;;;;13.88;4.15;;;3.70;79.90;;;;;;5029452;28;20041;-64
2022/02/25 02:43:52;;;;;;;10.70;3.25;;;3.70;80.00;;;;;;5029219;28;20141;-65
2022/02/25 02:46:18;;;;;;;14.93;4.53;;;3.70;80.00;;;;;;5027876;28;20568;-65
2022/02/25 02:48:44;;;;;;;8.90;3.08;;;3.70;80.10;;;;;;5027758;28;20144;-64
2022/02/25 02:51:10;;;;;;;8.05;3.00;;;3.70;80.10;;;;;;5029465;28;20036;-65
2022/02/25 02:53:38;;;;;;;8.02;3.33;;;3.70;80.10;;;;;;5029539;28;20037;-65
2022/02/25 02:56:04;;;;;;;10.43;2.90;;;3.70;80.10;;;;;;5028825;28;20095;-64
2022/02/25 02:58:30;;;;;;;9.90;3.13;;;3.70;80.10;;;;;;5028495;28;20076;-65
2022/02/25 03:00:56;;;;;;;8.48;3.58;;;3.70;80.30;;;;;;5028135;28;20120;-65
2022/02/25 03:03:22;;;;;;;9.50;3.33;;;3.70;80.30;;;;;;5028895;28;20125;-60
2022/02/25 03:05:50;;;;;;;8.93;3.10;;;3.70;80.20;;;;;;5028965;28;20034;-60
2022/02/25 03:08:16;;;;;;;10.82;4.00;;;3.70;80.20;;;;;;5028757;28;20021;-64
2022/02/25 03:10:43;;;;;;;11.68;3.45;;;3.70;80.20;;;;;;5030732;28;20029;-64
2022/02/25 03:13:09;;;;;;;9.60;4.10;;;3.70;80.30;;;;;;5031750;28;20038;-65
2022/02/25 03:15:35;;;;;;;9.25;3.60;;;3.70;80.40;;;;;;5032467;28;20052;-65
2022/02/25 03:18:02;;;;;;;8.65;3.25;;;3.70;80.40;;;;;;5031953;28;20025;-64
2022/02/25 03:20:27;;;;;;;6.93;3.47;;;3.70;80.40;;;;;;5032477;28;20105;-65
2022/02/25 03:22:55;;;;;;;11.05;3.88;;;3.70;80.40;;;;;;5032269;28;20108;-64
2022/02/25 03:25:21;;;;;;;10.40;3.80;;;3.70;80.50;;;;;;5030697;28;20037;-59
2022/02/25 03:27:47;;;;;;;9.20;3.17;;;3.70;80.40;;;;;;5032190;28;20081;-60
2022/02/25 03:30:14;;;;;;;13.63;3.88;;;3.70;80.40;;;;;;5032238;28;20025;-60
2022/02/25 03:32:44;;;;;;;13.25;3.60;;;3.70;80.40;;;;;;5032293;28;20035;-60
2022/02/25 03:35:11;;;;;;;9.75;3.30;;;3.70;80.40;;;;;;5032184;28;20085;-60
2022/02/25 03:37:37;;;;;;;8.20;3.33;;;3.70;80.40;;;;;;5032107;28;20026;-65
2022/02/25 03:40:04;;;;;;;12.80;3.92;;;3.70;80.40;;;;;;5031719;28;20068;-60
2022/02/25 03:42:30;;;;;;;11.30;3.47;;;3.70;80.40;;;;;;5011962;28;20077;-60
2022/02/25 03:44:56;;;;;;;9.98;3.25;;;3.70;80.40;;;;;;5027277;28;20492;-60
2022/02/25 03:47:22;;;;;;;15.52;3.55;;;3.70;80.30;;;;;;5030181;28;20384;-65
2022/02/25 03:49:51;;;;;;;8.10;3.28;;;3.70;80.30;;;;;;5031991;28;20037;-65
2022/02/25 03:52:16;;;;;;;12.32;3.58;;;3.70;80.30;;;;;;5013837;28;20025;-64
2022/02/25 03:54:42;;;;;;;14.15;3.40;;;3.70;80.40;;;;;;5030679;28;20113;-64
2022/02/25 03:57:08;;;;;;;14.27;4.38;;;3.70;80.40;;;;;;5031103;28;20041;-65
2022/02/25 03:59:34;;;;;;;12.85;3.28;;;3.70;80.40;;;;;;5032144;28;20083;-60
2022/02/25 04:01:59;;;;;;;10.05;3.28;;;3.70;80.40;;;;;;5031616;28;20029;-60
2022/02/25 04:04:27;;;;;;;12.80;2.95;;;3.70;80.30;;;;;;5029274;28;20041;-60
2022/02/25 04:06:53;;;;;;;8.90;3.75;;;3.70;80.30;;;;;;5031395;28;20057;-59
2022/02/25 04:09:19;;;;;;;14.30;3.50;;;3.70;80.30;;;;;;5031341;28;20030;-59
2022/02/25 04:11:49;;;;;;;11.13;2.80;;;3.70;80.30;;;;;;5030999;28;20033;-60
2022/02/25 04:14:18;;;;;;;9.00;2.47;;;3.70;80.30;;;;;;5031599;28;20026;-60
2022/02/25 04:16:48;;;;;;;8.73;2.50;;;3.70;80.20;;;;;;5031381;28;20037;-60
2022/02/25 04:19:15;;;;;;;9.52;3.10;;;3.70;80.20;;;;;;5031897;28;20073;-60
2022/02/25 04:21:41;;;;;;;10.93;2.60;;;3.70;80.30;;;;;;5031567;28;20104;-65
2022/02/25 04:24:07;;;;;;;8.32;2.50;;;3.70;80.30;;;;;;5029922;28;20400;-65
2022/02/25 04:26:33;;;;;;;9.18;2.90;;;3.60;80.30;;;;;;5030869;28;20083;-65
2022/02/25 04:28:59;;;;;;;10.07;2.70;;;3.60;80.30;;;;;;5031231;28;20061;-60
2022/02/25 04:31:25;;;;;;;8.35;2.42;;;3.60;80.40;;;;;;5031073;28;20060;-65
2022/02/25 04:33:52;;;;;;;10.32;2.97;;;3.60;80.40;;;;;;5031087;28;20434;-61
2022/02/25 04:36:20;;;;;;;12.80;2.90;;;3.60;80.40;;;;;;5030455;28;20708;-61
2022/02/25 04:38:46;;;;;;;12.43;3.47;;;3.60;80.50;;;;;;5031097;28;20037;-60
2022/02/25 04:41:13;;;;;;;12.02;2.70;;;3.60;80.60;;;;;;5013467;28;20029;-61
2022/02/25 04:43:38;;;;;;;9.95;3.22;;;3.60;80.70;;;;;;5030626;28;20033;-61
2022/02/25 04:46:04;;;;;;;16.88;3.50;;;3.60;80.70;;;;;;5030999;28;20037;-61
2022/02/25 04:48:30;;;;;;;11.50;2.97;;;3.60;80.70;;;;;;5030908;28;20507;-61
2022/02/25 04:50:59;;;;;;;9.98;3.20;;;3.60;80.70;;;;;;5029586;28;20399;-60
2022/02/25 04:53:25;;;;;;;17.40;3.28;;;3.60;80.70;;;;;;5030647;28;20033;-61
2022/02/25 04:55:51;;;;;;;16.00;4.47;;;3.60;80.80;;;;;;5030339;28;20040;-60
2022/02/25 04:58:17;;;;;;;17.83;3.60;;;3.60;80.80;;;;;;5029184;28;20076;-60
2022/02/25 05:00:43;;;;;;;10.50;2.95;;;3.60;80.90;;;;;;5030335;28;20044;-61
2022/02/25 05:03:09;;;;;;;9.85;2.50;;;3.60;80.90;;;;;;5060580;28;20314;-61
2022/02/25 05:05:35;;;;;;;15.48;3.40;;;3.60;80.90;;;;;;5030101;28;20041;-61
2022/02/25 05:08:01;;;;;;;12.77;3.00;;;3.60;81.60;;;;;;5029612;28;20132;-65
2022/02/25 05:10:28;;;;;;;17.65;4.13;;;3.50;81.10;;;;;;5030451;28;20026;-65
2022/02/25 05:12:54;;;;;;;8.18;2.70;;;3.50;81.70;;;;;;5030207;28;20157;-60
2022/02/25 05:20:49;;;;;;;14.80;3.63;;;3.50;81.20;;;;;;5030907;28;20035;-61
2022/02/25 05:23:16;;;;;;;11.98;3.22;;;3.50;81.30;;;;;;5029483;28;20068;-61
2022/02/25 05:25:42;;;;;;;13.48;3.10;;;3.50;81.30;;;;;;5029895;28;20029;-65
2022/02/25 05:28:07;;;;;;;14.50;3.05;;;3.50;81.40;;;;;;5028364;28;20080;-65
2022/02/25 05:30:34;;;;;;;11.07;2.88;;;3.50;81.40;;;;;;5028795;28;20412;-65
2022/02/25 05:33:00;;;;;;;13.95;2.80;;;3.50;81.50;;;;;;5026443;28;20100;-65
2022/02/25 05:35:26;;;;;;;13.43;2.75;;;3.50;81.60;;;;;;5029270;28;20543;-65
2022/02/25 05:37:52;;;;;;;15.63;3.60;;;3.50;81.60;;;;;;5030037;28;20055;-65
2022/02/25 05:40:20;;;;;;;23.10;3.28;;;3.50;81.70;;;;;;5029726;28;20029;-64
2022/02/25 05:42:46;;;;;;;20.98;2.92;;;3.60;81.80;;;;;;5029322;28;20057;-66
2022/02/25 05:45:13;;;;;;;15.35;3.63;;;3.60;81.90;;;;;;5029146;28;20030;-60
2022/02/25 05:47:39;;;;;;;11.00;2.92;;;3.60;81.80;;;;;;5030006;28;20104;-60
2022/02/25 05:50:08;;;;;;;16.38;3.85;;;3.60;81.80;;;;;;5028538;28;20053;-60
2022/02/25 05:52:37;;;;;;;12.98;3.15;;;3.60;81.80;;;;;;5029550;28;20033;-60
2022/02/25 05:55:03;;;;;;;17.00;4.38;;;3.60;82.50;;;;;;5029346;28;20472;-59
2022/02/25 05:57:29;;;;;;;13.75;3.75;;;3.60;82.00;;;;;;5028933;28;20037;-59
2022/02/25 05:59:55;;;;;;;15.18;2.65;;;3.60;81.90;;;;;;5029869;28;20037;-59
2022/02/25 06:02:21;;;;;;;13.20;3.15;;;3.70;82.00;;;;;;5029606;28;20033;-63
2022/02/25 06:04:47;;;;;;;11.73;2.92;;;3.70;82.00;;;;;;5027619;28;20037;-60
2022/02/25 06:07:13;;;;;;;18.50;3.85;;;3.70;82.00;;;;;;5029244;28;20025;-60
2022/02/25 06:09:42;;;;;;;14.85;3.03;;;3.70;82.00;;;;;;5029283;28;20033;-59
2022/02/25 06:12:08;;;;;;;16.02;3.17;;;3.70;82.00;;;;;;5029098;28;20037;-59
2022/02/25 06:14:34;;;;;;;15.75;3.25;;;3.70;81.90;;;;;;5029896;28;20124;-60
2022/02/25 06:16:59;;;;;;;15.57;2.80;;;3.80;82.00;;;;;;5027178;28;20059;-60
2022/02/25 06:19:25;;;;;;;15.43;2.72;;;3.80;82.00;;;;;;5029420;28;20151;-60
2022/02/25 06:21:51;;;;;;;12.73;2.80;;;3.80;82.10;;;;;;5029031;28;20028;-64
2022/02/25 06:24:17;;;;;;;15.43;3.25;;;3.80;82.10;;;;;;5029749;28;20160;-60
2022/02/25 06:26:43;;;;;;;14.02;3.38;;;3.90;82.40;;;;;;5028559;28;20029;-60
2022/02/25 06:29:09;;;;;;;11.88;3.03;;;3.90;82.40;;;;;;5028079;28;20025;-60
2022/02/25 06:31:35;;;;;;;19.17;3.28;;;3.90;82.60;;;;;;5029393;28;20115;-59
2022/02/25 06:34:01;;;;;;;15.77;2.83;;;3.90;82.70;;;;;;5028978;28;20057;-59
2022/02/25 06:36:29;;;;;;;15.82;3.65;;;3.90;83.10;;;;;;5028315;28;20037;-59
2022/02/25 06:38:55;;;;;;;13.18;3.20;;;3.90;83.40;;;;;;5029289;28;20034;-61
2022/02/25 06:41:23;;;;;;;14.15;2.90;;;3.90;83.90;;;;;;5028956;28;20037;-60
2022/02/25 06:43:49;;;;;;;10.07;2.85;;;3.90;84.30;;;;;;5029085;28;20033;-62
2022/02/25 06:46:15;;;;;;;15.05;3.20;;;3.90;84.60;;;;;;5031561;28;20053;-60
2022/02/25 06:48:41;;;;;;;18.83;3.38;;;3.90;84.80;;;;;;5032891;28;20460;-61
2022/02/25 06:51:08;;;;;;;13.38;2.92;;;3.90;85.00;;;;;;5033009;28;20026;-60
2022/02/25 06:53:33;;;;;;;14.75;3.80;;;3.90;85.30;;;;;;5032929;28;20484;-60
2022/02/25 06:55:59;;;;;;;20.35;3.70;;;3.90;85.60;;;;;;5032391;28;20033;-61
2022/02/25 06:58:25;;;;;;;15.05;3.53;;;3.90;85.90;;;;;;5032066;28;20442;-61
2022/02/25 07:00:51;;;;;;;13.23;2.97;;;3.90;86.20;;;;;;5032668;28;20029;-61
2022/02/25 07:03:17;;;;;;;17.05;4.07;;;4.00;86.30;;;;;;5031468;28;20052;-61
2022/02/25 07:05:42;;;;;;;11.40;4.07;;;4.00;86.60;;;;;;5032107;28;20053;-61
2022/02/25 07:08:09;;;;;;;18.02;4.90;;;4.00;86.80;;;;;;5030810;28;20470;-61
2022/02/25 07:10:36;;;;;;;10.35;3.30;;;4.00;87.10;;;;;;5032706;28;20022;-65
2022/02/25 07:13:04;;;;;;;9.07;3.75;;;4.00;87.30;;;;;;5030393;28;20099;-65
2022/02/25 07:15:30;;;;;;;11.20;3.58;;;4.10;87.50;;;;;;5032584;28;20065;-66
2022/02/25 07:17:58;;;;;;;14.02;4.38;;;4.00;87.60;;;;;;5032220;28;20436;-65
2022/02/25 07:20:23;;;;;;;18.30;3.53;;;4.10;87.60;;;;;;5029593;28;20341;-64
2022/02/25 07:22:49;;;;;;;16.70;3.60;;;4.00;87.60;;;;;;5032127;28;20030;-65
2022/02/25 07:25:15;;;;;;;19.67;4.18;;;4.10;87.90;;;;;;5032196;28;20052;-60
2022/02/25 07:27:42;;;;;;;16.42;4.82;;;4.10;88.00;;;;;;5032551;28;20041;-60
2022/02/25 07:30:09;;;;;;;19.45;4.50;;;4.10;88.10;;;;;;5031164;28;20804;-59
2022/02/25 07:32:35;;;;;;;15.32;4.30;;;4.20;88.20;;;;;;5031195;28;20025;-60
2022/02/25 07:35:02;;;;;;;19.25;4.15;;;4.20;88.20;;;;;;5032084;28;20037;-61
2022/02/25 07:37:28;;;;;;;27.73;4.93;;;4.20;88.20;;;;;;5030996;28;20037;-60
2022/02/25 07:39:54;;;;;;;19.35;3.83;;;4.30;88.50;;;;;;5031850;28;20483;-60
2022/02/25 07:42:21;;;;;;;17.80;5.28;;;4.30;88.40;;;;;;5030994;28;20387;-64
2022/02/25 07:44:47;;;;;;;15.95;4.78;;;4.30;88.30;;;;;;5032019;28;20030;-60
2022/02/25 07:47:12;;;;;;;20.23;3.53;;;4.30;88.30;;;;;;5031443;28;20392;-60
2022/02/25 07:49:38;;;;;;;16.92;3.38;;;4.40;88.50;;;;;;5031724;28;20400;-64
2022/02/25 07:52:04;;;;;;;17.52;3.40;;;4.40;88.50;;;;;;5031265;28;20021;-63
2022/02/25 07:54:31;;;;;;;21.50;4.43;;;4.40;88.50;;;;;;5031614;28;20109;-64
2022/02/25 07:56:58;;;;;;;18.13;5.22;;;4.50;88.50;;;;;;5030687;28;20034;-65
2022/02/25 07:59:23;;;;;;;15.80;3.75;;;4.50;88.50;;;;;;5031605;28;20400;-65
2022/02/25 08:01:49;;;;;;;14.88;3.67;;;4.60;88.50;;;;;;5029895;28;20039;-65
2022/02/25 08:04:15;;;;;;;17.05;3.30;;;4.60;88.60;;;;;;5030318;28;20055;-65
2022/02/25 08:06:42;;;;;;;15.73;3.03;;;4.70;88.70;;;;;;5030759;28;20036;-65
2022/02/25 08:09:11;;;;;;;13.77;4.75;;;4.70;88.50;;;;;;5031436;28;20029;-65
2022/02/25 08:11:37;;;;;;;17.50;3.42;;;4.70;88.50;;;;;;5027608;28;20029;-66
2022/02/25 08:14:03;;;;;;;19.73;3.42;;;4.80;88.40;;;;;;5015245;28;20045;-64
2022/02/25 08:16:29;;;;;;;14.45;3.85;;;4.80;88.50;;;;;;5022519;28;20091;-64
2022/02/25 08:18:55;;;;;;;15.30;3.30;;;4.90;88.40;;;;;;5030656;28;20041;-64
2022/02/25 08:21:20;;;;;;;21.50;4.30;;;4.90;88.30;;;;;;5031373;28;20032;-65
2022/02/25 08:23:46;;;;;;;16.35;3.03;;;5.00;88.20;;;;;;5031170;28;20029;-65
2022/02/25 08:26:12;;;;;;;15.23;3.05;;;5.10;88.10;;;;;;5030270;28;20068;-65
2022/02/25 08:28:37;;;;;;;23.25;3.22;;;5.20;88.00;;;;;;5030579;28;20075;-65
2022/02/25 08:31:04;;;;;;;13.90;2.88;;;5.20;87.70;;;;;;5030801;28;20488;-64
2022/02/25 08:33:30;;;;;;;20.65;4.65;;;5.30;87.60;;;;;;5029839;28;20543;-65
2022/02/25 08:35:56;;;;;;;19.67;3.65;;;5.40;87.10;;;;;;5027678;28;20147;-65
2022/02/25 08:38:21;;;;;;;15.35;3.10;;;5.50;86.90;;;;;;5022122;28;20079;-65
2022/02/25 08:40:47;;;;;;;20.73;4.13;;;5.50;86.40;;;;;;5032237;28;20072;-65
2022/02/25 08:43:14;;;;;;;15.07;2.90;;;5.60;86.30;;;;;;5039900;28;20037;-60
2022/02/25 08:45:41;;;;;;;14.43;2.78;;;5.70;86.00;;;;;;5012125;28;20033;-61
2022/02/25 08:48:08;;;;;;;15.32;2.95;;;5.80;85.50;;;;;;5057683;28;20053;-61
2022/02/25 08:50:34;;;;;;;23.80;3.88;;;5.90;85.00;;;;;;5007641;28;20030;-61
2022/02/25 08:53:00;;;;;;;11.63;2.97;;;6.00;84.40;;;;;;5030034;28;20044;-60
2022/02/25 08:55:26;;;;;;;21.50;4.30;;;6.00;83.90;;;;;;5029883;28;20252;-60
2022/02/25 08:57:53;;;;;;;16.42;3.05;;;6.10;83.70;;;;;;5041609;28;20030;-60
2022/02/25 09:00:22;;;;;;;10.60;2.55;;;6.20;83.40;;;;;;5029617;28;20412;-61
2022/02/25 09:02:48;;;;;;;17.77;3.45;;;6.20;83.30;;;;;;5019501;28;20455;-61
2022/02/25 09:05:15;;;;;;;16.48;2.90;;;6.30;83.20;;;;;;5028423;28;20435;-65
2022/02/25 09:07:41;;;;;;;11.40;2.95;;;6.40;83.10;;;;;;5029779;28;20026;-65
2022/02/25 09:10:08;;;;;;;13.40;2.50;;;6.50;82.60;;;;;;5030529;28;20480;-65
2022/02/25 09:12:35;;;;;;;14.02;3.33;;;6.60;82.40;;;;;;5029298;28;20472;-65
2022/02/25 09:15:04;;;;;;;17.05;2.53;;;6.70;81.50;;;;;;5029832;28;20026;-60
2022/02/25 09:17:30;;;;;;;15.77;3.80;;;6.80;81.40;;;;;;5029903;28;20027;-60
2022/02/25 09:19:56;;;;;;;14.68;2.83;;;7.00;81.00;;;;;;5022525;28;20021;-61
2022/02/25 09:22:22;;;;;;;11.60;2.42;;;7.00;79.40;;;;;;5029030;28;20112;-60
2022/02/25 09:24:48;;;;;;;13.25;2.67;;;7.00;79.10;;;;;;5030649;28;20128;-66
2022/02/25 09:27:14;;;;;;;12.35;2.35;;;7.00;79.10;;;;;;5028410;28;20017;-66
2022/02/25 09:29:40;;;;;;;18.85;2.63;;;7.10;79.10;;;;;;5027918;28;20038;-65
2022/02/25 09:32:07;;;;;;;11.98;2.00;;;7.10;77.60;;;;;;5027607;28;20036;-61
2022/02/25 09:34:34;;;;;;;15.55;2.65;;;7.20;76.80;;;;;;5029640;28;20028;-60
2022/02/25 09:36:59;;;;;;;13.23;2.47;;;7.20;76.10;;;;;;5051170;28;20029;-65
2022/02/25 09:39:25;;;;;;;13.30;2.40;;;7.30;75.90;;;;;;5029375;28;20068;-65
2022/02/25 09:41:52;;;;;;;10.32;2.22;;;7.30;75.80;;;;;;5028410;28;20490;-65
2022/02/25 09:44:17;;;;;;;14.60;2.08;;;7.30;75.70;;;;;;5029551;28;20201;-66
2022/02/25 09:46:44;;;;;;;17.27;3.65;;;7.30;75.60;;;;;;5027659;28;20455;-66
2022/02/25 09:49:10;;;;;;;10.32;2.15;;;7.30;75.20;;;;;;5029258;28;20037;-66
2022/02/25 09:51:37;;;;;;;12.65;1.98;;;7.20;74.80;;;;;;5028525;28;20036;-65
2022/02/25 09:54:03;;;;;;;9.18;1.73;;;7.10;75.20;;;;;;5032277;28;20033;-65
2022/02/25 09:56:29;;;;;;;14.50;2.20;;;7.00;76.20;;;;;;5048334;28;20522;-65
2022/02/25 09:58:57;;;;;;;8.23;2.22;;;6.90;76.40;;;;;;5049922;28;20036;-65
2022/02/25 10:01:29;;;;;;;12.20;2.40;;;6.90;76.80;;;;;;5049311;28;20124;-65
2022/02/25 10:03:55;;;;;;;14.73;2.60;;;6.80;77.30;;;;;;5047932;28;20049;-64
2022/02/25 10:06:29;;;;;;;14.45;2.85;;;6.80;77.30;;;;;;5047601;28;20441;-65
2022/02/25 10:08:56;;;;;;;16.30;2.72;;;6.80;77.30;;;;;;5043995;28;20029;-65
2022/02/25 10:11:22;;;;;;;13.85;2.65;;;6.90;76.80;;;;;;5009589;28;20084;-65
2022/02/25 10:13:48;;;;;;;16.48;3.47;;;6.90;76.70;;;;;;5009742;28;20477;-65
2022/02/25 10:16:14;;;;;;;9.73;2.20;;;7.00;76.70;;;;;;5008869;28;20034;-65
2022/02/25 10:18:40;;;;;;;12.77;2.45;;;7.10;76.80;;;;;;5016499;28;20026;-66
2022/02/25 10:21:09;;;;;;;14.85;2.40;;;7.10;77.20;;;;;;5033523;28;20036;-65
2022/02/25 10:23:37;;;;;;;16.23;2.95;;;7.20;77.10;;;;;;5033137;28;20026;-64
2022/02/25 10:26:22;;;;;;;15.45;2.90;;;7.30;76.90;;;;;;5026018;28;20061;-65
2022/02/25 10:28:51;;;;;;;14.75;2.40;;;7.40;76.50;;;;;;5033142;28;20024;-66
2022/02/25 10:31:22;;;;;;;11.32;2.58;;;7.50;76.20;;;;;;5028500;28;20018;-61
2022/02/25 10:34:18;;;;;;;15.25;3.08;;;7.60;76.20;;;;;;5013454;28;20053;-59
2022/02/25 10:36:53;;;;;;;15.55;2.90;;;7.70;75.90;;;;;;5011158;28;20053;-65
2022/02/25 10:39:24;;;;;;;14.57;2.92;;;7.60;75.70;;;;;;5013285;28;20037;-65
2022/02/25 10:42:11;;;;;;;16.33;2.42;;;7.60;75.50;;;;;;5013271;28;20041;-65
2022/02/25 10:44:43;;;;;;;11.52;2.90;;;7.40;75.50;;;;;;5013258;28;20074;-65
2022/02/25 10:47:28;;;;;;;16.90;3.42;;;7.30;76.00;;;;;;5012762;28;20025;-66
2022/02/25 10:50:12;;;;;;;17.58;2.63;;;7.30;76.40;;;;;;5013482;28;20033;-65
2022/02/25 10:52:47;;;;;;;15.20;2.75;;;7.30;76.80;;;;;;5013459;28;20500;-65
2022/02/25 10:55:19;;;;;;;14.38;2.83;;;7.20;77.00;;;;;;5012528;28;20444;-66
2022/02/25 10:57:45;;;;;;;14.13;2.92;;;7.20;76.50;;;;;;5020838;28;20095;-60
2022/02/25 11:00:13;;;;;;;14.48;2.65;;;7.10;76.50;;;;;;5037879;28;20035;-61
2022/02/25 11:02:43;;;;;;;8.90;2.60;;;7.10;77.10;;;;;;5012778;28;20018;-61
2022/02/25 11:05:11;;;;;;;9.52;2.25;;;7.00;77.50;;;;;;5012062;28;20049;-60
2022/02/25 11:07:40;;;;;;;10.07;2.30;;;6.90;78.20;;;;;;5013378;28;20499;-66
2022/02/25 11:10:07;;;;;;;12.82;2.35;;;6.80;78.70;;;;;;5032503;28;20025;-66
2022/02/25 11:12:38;;;;;;;10.55;1.88;;;6.80;79.30;;;;;;5032263;28;20156;-65
2022/02/25 11:15:04;;;;;;;10.63;2.58;;;6.80;79.70;;;;;;5031809;28;20032;-65
2022/02/25 11:17:32;;;;;;;14.60;4.30;;;6.80;80.00;;;;;;5031584;28;20369;-65
2022/02/25 11:19:59;;;;;;;10.93;2.40;;;6.80;80.70;;;;;;5032551;28;20099;-65
2022/02/25 11:22:28;;;;;;;14.85;2.72;;;6.80;80.90;;;;;;5031953;28;20510;-65
2022/02/25 11:24:54;;;;;;;13.88;3.40;;;6.80;81.30;;;;;;5031922;28;20038;-65
2022/02/25 11:27:20;;;;;;;11.65;2.28;;;6.80;81.40;;;;;;5031824;28;20033;-65
2022/02/25 11:30:01;;;;;;;12.88;2.45;;;6.80;82.10;;;;;;5032059;28;20033;-60
2022/02/25 11:32:36;;;;;;;11.40;2.20;;;6.80;81.70;;;;;;5016860;28;20106;-60
2022/02/25 11:35:14;;;;;;;12.15;2.35;;;6.80;81.30;;;;;;5012187;28;20392;-65
2022/02/25 11:37:41;;;;;;;11.40;2.63;;;6.80;81.20;;;;;;5011996;28;20476;-64
2022/02/25 11:40:08;;;;;;;12.48;2.15;;;6.80;81.10;;;;;;5012285;28;20057;-66
2022/02/25 11:42:33;;;;;;;10.13;2.28;;;6.80;80.90;;;;;;5011818;28;20026;-65
2022/02/25 11:45:20;;;;;;;10.85;1.95;;;6.80;80.60;;;;;;5011260;28;20026;-65
2022/02/25 11:47:51;;;;;;;9.35;2.65;;;6.80;80.80;;;;;;5011796;28;20072;-61
2022/02/25 11:50:36;;;;;;;11.18;2.10;;;6.90;81.00;;;;;;5012195;28;20018;-61
2022/02/25 11:53:16;;;;;;;9.52;2.20;;;6.90;80.70;;;;;;5031407;28;20029;-60
2022/02/25 11:55:43;;;;;;;11.40;2.15;;;7.10;81.10;;;;;;5031116;28;20022;-65
2022/02/25 11:58:40;;;;;;;12.30;2.53;;;7.20;80.20;;;;;;5030539;28;20499;-65
2022/02/25 12:01:12;;;;;;;14.45;2.42;;;7.20;80.30;;;;;;5031939;28;20388;-65
2022/02/25 12:04:06;;;;;;;18.20;2.83;;;7.20;79.60;;;;;;5040904;28;20029;-65
2022/02/25 12:06:55;;;;;;;8.88;1.95;;;7.10;79.80;;;;;;5011078;28;20167;-65
2022/02/25 12:09:55;;;;;;;11.48;2.08;;;6.90;79.40;;;;;;5011218;28;20034;-65
2022/02/25 12:12:23;;;;;;;15.77;2.58;;;7.00;80.80;;;;;;5011244;28;20034;-65
2022/02/25 12:15:15;;;;;;;10.93;2.00;;;7.40;80.80;;;;;;5027817;28;20029;-65
2022/02/25 12:17:41;;;;;;;15.52;3.13;;;7.80;80.60;;;;;;5031308;28;20574;-65
2022/02/25 12:20:10;;;;;;;11.30;2.38;;;8.40;79.80;;;;;;5031320;28;20101;-65
2022/02/25 12:22:54;;;;;;;16.77;3.35;;;8.80;79.00;;;;;;5031081;28;20030;-66
2022/02/25 12:25:41;;;;;;;16.20;2.90;;;9.10;77.50;;;;;;5029976;28;20028;-64
2022/02/25 12:28:27;;;;;;;18.33;2.80;;;9.40;77.20;;;;;;5030659;28;20476;-65
2022/02/25 12:31:04;;;;;;;14.35;2.47;;;9.40;75.40;;;;;;5028844;28;20021;-65
2022/02/25 12:33:44;;;;;;;12.60;2.40;;;9.10;75.10;;;;;;5011103;28;20088;-65
2022/02/25 12:36:12;;;;;;;19.20;3.50;;;8.80;75.50;;;;;;5010464;28;20045;-65
2022/02/25 12:38:49;;;;;;;15.57;2.83;;;8.60;76.00;;;;;;5026359;28;20073;-64
2022/02/25 12:41:18;;;;;;;10.90;2.65;;;8.40;77.10;;;;;;5010982;28;20069;-65
2022/02/25 12:43:58;;;;;;;16.20;2.88;;;8.60;78.00;;;;;;5009965;28;20037;-65
2022/02/25 12:46:30;;;;;;;19.05;2.80;;;8.80;77.50;;;;;;5010457;28;20022;-60
2022/02/25 12:48:57;;;;;;;14.82;2.92;;;9.00;75.30;;;;;;5022627;28;20400;-60
2022/02/25 12:51:24;;;;;;;12.95;3.08;;;9.10;75.00;;;;;;5030454;28;20028;-61
2022/02/25 12:53:57;;;;;;;14.55;2.70;;;9.30;74.70;;;;;;5029642;28;20419;-61
2022/02/25 12:56:27;;;;;;;20.30;3.40;;;9.50;74.70;;;;;;5029679;28;20017;-61
2022/02/25 12:58:57;;;;;;;13.30;3.33;;;9.70;73.10;;;;;;5028814;28;20345;-61